Time;durP1;ratioP1;P1;durP2;ratioP2;P2;SDS_P1;SDS_P2;PMS_P1;PMS_P2;Temp;Humidity;BMP_temperature;BMP_pressure;BME280_temperature;BME280_humidity;BME280_pressure;Samples;Min_cycle;Max_cycle;Signal;HPM_P1;HPM_P2
2023/09/27 00:00:15;;;;;;;14.02;7.70;;;;;;;13.30;100.00;101888.75;5028789;28;20045;-71
2023/09/27 00:02:44;;;;;;;15.38;7.15;;;;;;;13.26;100.00;101894.41;5026604;28;20053;-72
2023/09/27 00:05:11;;;;;;;9.63;6.88;;;;;;;13.24;100.00;101901.84;5026977;28;20129;-71
2023/09/27 00:07:39;;;;;;;11.02;6.90;;;;;;;13.21;100.00;101906.59;5033615;28;20032;-72
2023/09/27 00:10:06;;;;;;;9.73;7.70;;;;;;;13.19;100.00;101906.69;5046640;28;20334;-71
2023/09/27 00:12:32;;;;;;;9.30;7.30;;;;;;;13.18;100.00;101904.06;5046114;28;20047;-71
2023/09/27 00:14:57;;;;;;;9.82;7.32;;;;;;;13.20;100.00;101899.41;5031253;28;20481;-71
2023/09/27 00:17:23;;;;;;;13.15;7.90;;;;;;;13.21;100.00;101901.16;5026899;28;20041;-71
2023/09/27 00:19:49;;;;;;;11.18;8.15;;;;;;;13.24;100.00;101890.94;5026980;28;20033;-72
2023/09/27 00:22:15;;;;;;;10.30;8.45;;;;;;;13.32;100.00;101900.44;5039982;28;20103;-72
2023/09/27 00:24:40;;;;;;;13.75;9.73;;;;;;;13.38;100.00;101905.50;5026381;28;20038;-72
2023/09/27 00:27:06;;;;;;;12.43;8.82;;;;;;;13.43;100.00;101901.50;5041406;28;20100;-72
2023/09/27 00:29:34;;;;;;;12.57;8.57;;;;;;;13.45;100.00;101901.38;5027439;28;20428;-71
2023/09/27 00:31:59;;;;;;;12.52;8.02;;;;;;;13.50;100.00;101908.28;5024912;28;20034;-71
2023/09/27 00:34:25;;;;;;;12.95;7.88;;;;;;;13.55;100.00;101901.63;5026142;28;20132;-71
2023/09/27 00:36:50;;;;;;;12.45;7.70;;;;;;;13.52;100.00;101897.22;5024447;28;20029;-72
2023/09/27 00:39:16;;;;;;;12.90;7.80;;;;;;;13.52;100.00;101897.22;5010691;28;20459;-71
2023/09/27 00:41:42;;;;;;;11.48;7.28;;;;;;;13.51;100.00;101901.81;5028845;28;20032;-71
2023/09/27 00:44:07;;;;;;;10.02;7.15;;;;;;;13.53;100.00;101899.00;5030184;28;20109;-71
2023/09/27 00:46:33;;;;;;;11.38;6.97;;;;;;;13.50;100.00;101893.75;5030524;28;20022;-71
2023/09/27 00:48:58;;;;;;;11.73;7.82;;;;;;;13.52;100.00;101895.41;5040858;28;20033;-71
2023/09/27 00:51:26;;;;;;;10.55;7.20;;;;;;;13.50;100.00;101899.22;5048900;28;20484;-71
2023/09/27 00:53:54;;;;;;;9.32;7.80;;;;;;;13.50;100.00;101896.47;5028853;28;20033;-71
2023/09/27 00:56:20;;;;;;;12.73;7.80;;;;;;;13.46;100.00;101884.00;5029863;28;20044;-71
2023/09/27 00:58:47;;;;;;;9.80;7.00;;;;;;;13.39;100.00;101886.28;5028136;28;20041;-71
2023/09/27 01:01:13;;;;;;;11.88;7.25;;;;;;;13.38;100.00;101889.09;5029468;28;20457;-71
2023/09/27 01:03:38;;;;;;;12.77;6.97;;;;;;;13.33;100.00;101894.00;5029559;28;20041;-71
2023/09/27 01:06:04;;;;;;;11.85;7.13;;;;;;;13.28;100.00;101891.56;5028813;28;20720;-73
2023/09/27 01:08:29;;;;;;;11.13;7.55;;;;;;;13.29;100.00;101893.34;5028251;28;20029;-71
2023/09/27 01:10:55;;;;;;;8.02;7.07;;;;;;;13.21;100.00;101887.47;5028233;28;20420;-71
2023/09/27 01:13:20;;;;;;;10.90;7.35;;;;;;;13.17;100.00;101884.06;5027934;28;20450;-71
2023/09/27 01:15:46;;;;;;;11.23;6.78;;;;;;;13.13;100.00;101895.31;5049388;28;20036;-71
2023/09/27 01:18:11;;;;;;;9.55;7.45;;;;;;;13.10;100.00;101884.56;5048228;28;20043;-71
2023/09/27 01:20:37;;;;;;;12.07;8.00;;;;;;;13.04;100.00;101885.84;5046206;28;20511;-71
2023/09/27 01:23:03;;;;;;;8.05;7.25;;;;;;;13.00;100.00;101876.97;5040987;28;20419;-71
2023/09/27 01:25:31;;;;;;;13.63;9.27;;;;;;;12.98;100.00;101867.16;5049553;28;20531;-71
2023/09/27 01:27:58;;;;;;;9.13;7.65;;;;;;;12.90;100.00;101855.84;5037875;28;20028;-71
2023/09/27 01:30:25;;;;;;;12.85;8.75;;;;;;;12.94;100.00;101860.13;5027763;28;20500;-71
2023/09/27 01:32:50;;;;;;;13.48;9.25;;;;;;;12.90;100.00;101854.00;5037052;28;20037;-71
2023/09/27 01:35:16;;;;;;;10.60;7.43;;;;;;;12.87;100.00;101850.56;5049262;28;20017;-71
2023/09/27 01:37:41;;;;;;;11.65;7.60;;;;;;;12.84;100.00;101845.34;5034306;28;20048;-71
2023/09/27 01:40:10;;;;;;;15.45;7.63;;;;;;;12.81;100.00;101845.53;5027703;28;20084;-71
2023/09/27 01:42:43;;;;;;;10.77;7.65;;;;;;;12.78;100.00;101843.91;5028961;28;20045;-71
2023/09/27 01:45:14;;;;;;;15.48;8.02;;;;;;;12.75;100.00;101849.53;5043271;28;20079;-71
2023/09/27 01:47:40;;;;;;;12.27;7.25;;;;;;;12.68;100.00;101846.34;5049125;28;20499;-71
2023/09/27 01:50:09;;;;;;;11.85;7.60;;;;;;;12.67;100.00;101857.34;5047526;28;20037;-72
2023/09/27 01:52:34;;;;;;;9.70;6.80;;;;;;;12.63;100.00;101862.13;5040129;28;20057;-72
2023/09/27 01:55:00;;;;;;;10.20;7.18;;;;;;;12.60;100.00;101864.22;5029370;28;20057;-71
2023/09/27 01:57:25;;;;;;;13.43;8.48;;;;;;;12.57;100.00;101858.94;5028785;28;20041;-72
2023/09/27 01:59:50;;;;;;;10.20;6.88;;;;;;;12.55;100.00;101866.34;5026763;28;20092;-71
2023/09/27 02:02:16;;;;;;;11.00;7.07;;;;;;;12.54;100.00;101861.84;5027281;28;20036;-71
2023/09/27 02:04:41;;;;;;;10.73;8.32;;;;;;;12.54;100.00;101859.13;5028637;28;20044;-72
2023/09/27 02:07:07;;;;;;;12.00;8.25;;;;;;;12.50;100.00;101863.94;5010919;28;20029;-71
2023/09/27 02:09:32;;;;;;;9.43;6.70;;;;;;;12.47;100.00;101859.53;5027365;28;20128;-72
2023/09/27 02:11:58;;;;;;;9.70;7.00;;;;;;;12.45;100.00;101856.03;5044633;28;20040;-71
2023/09/27 02:14:23;;;;;;;11.35;6.55;;;;;;;12.41;100.00;101857.19;5038514;28;20544;-72
2023/09/27 02:16:48;;;;;;;9.23;7.22;;;;;;;12.39;100.00;101853.66;5010522;28;20506;-71
2023/09/27 02:19:14;;;;;;;8.98;7.55;;;;;;;12.36;100.00;101858.47;5026977;28;20032;-71
2023/09/27 02:21:39;;;;;;;11.38;6.85;;;;;;;12.33;100.00;101869.56;5026913;28;20033;-71
2023/09/27 02:24:06;;;;;;;10.07;7.13;;;;;;;12.28;100.00;101864.41;5027682;28;20045;-71
2023/09/27 02:26:31;;;;;;;13.77;7.57;;;;;;;12.25;100.00;101854.53;5028482;28;20133;-71
2023/09/27 02:28:58;;;;;;;10.05;7.88;;;;;;;12.27;100.00;101859.94;5026480;28;20041;-71
2023/09/27 02:31:23;;;;;;;11.40;6.63;;;;;;;12.26;100.00;101863.59;5026794;28;20315;-71
2023/09/27 02:33:49;;;;;;;9.75;6.70;;;;;;;12.25;100.00;101861.88;5026771;28;20048;-71
2023/09/27 02:36:15;;;;;;;13.00;6.93;;;;;;;12.22;100.00;101853.88;5026989;28;20484;-72
2023/09/27 02:38:41;;;;;;;8.65;6.80;;;;;;;12.22;100.00;101862.06;5009648;28;20029;-71
2023/09/27 02:41:07;;;;;;;10.82;7.32;;;;;;;12.21;100.00;101866.63;5026572;28;20087;-72
2023/09/27 02:43:32;;;;;;;10.07;7.00;;;;;;;12.20;100.00;101869.47;5010365;28;20044;-71
2023/09/27 02:45:57;;;;;;;11.32;7.65;;;;;;;12.18;100.00;101869.56;5026586;28;20449;-72
2023/09/27 02:48:23;;;;;;;11.00;7.00;;;;;;;12.09;100.00;101863.81;5027807;28;20417;-72
2023/09/27 02:50:50;;;;;;;12.95;7.68;;;;;;;12.06;100.00;101874.91;5026478;28;20042;-72
2023/09/27 02:53:16;;;;;;;12.07;7.80;;;;;;;12.06;100.00;101872.19;5027267;28;20038;-72
2023/09/27 02:55:41;;;;;;;9.27;7.32;;;;;;;12.05;100.00;101864.97;5025952;28;20021;-72
2023/09/27 02:58:07;;;;;;;8.13;6.80;;;;;;;12.08;100.00;101862.06;5037724;28;20104;-72
2023/09/27 03:00:34;;;;;;;12.98;6.47;;;;;;;12.07;100.00;101863.88;5027746;28;20489;-71
2023/09/27 03:03:03;;;;;;;12.93;7.07;;;;;;;12.06;100.00;101864.88;5025902;28;20468;-72
2023/09/27 03:05:30;;;;;;;12.93;7.13;;;;;;;12.05;100.00;101868.56;5026752;28;20038;-72
2023/09/27 03:07:57;;;;;;;9.75;7.32;;;;;;;11.99;100.00;101863.50;5037254;28;20500;-72
2023/09/27 03:10:22;;;;;;;9.75;7.25;;;;;;;11.94;100.00;101858.34;5046944;28;20041;-72
2023/09/27 03:12:48;;;;;;;12.45;7.10;;;;;;;11.92;100.00;101852.09;5047586;28;20036;-72
2023/09/27 03:15:14;;;;;;;9.88;7.68;;;;;;;11.90;100.00;101861.34;5029304;28;20024;-72
2023/09/27 03:17:42;;;;;;;13.32;7.80;;;;;;;11.87;100.00;101864.25;5027415;28;20037;-72
2023/09/27 03:20:14;;;;;;;8.63;6.28;;;;;;;11.87;100.00;101866.97;5026222;28;20471;-72
2023/09/27 03:22:39;;;;;;;7.95;6.47;;;;;;;11.84;100.00;101859.84;5025741;28;20045;-72
2023/09/27 03:25:07;;;;;;;12.07;6.68;;;;;;;11.84;100.00;101856.25;5009076;28;20029;-72
2023/09/27 03:27:33;;;;;;;12.20;6.90;;;;;;;11.82;100.00;101867.28;5026396;28;20040;-72
2023/09/27 03:29:59;;;;;;;10.90;6.75;;;;;;;11.80;100.00;101866.47;5038502;28;20132;-72
2023/09/27 03:32:25;;;;;;;9.15;6.93;;;;;;;11.79;100.00;101872.00;5027561;28;20036;-72
2023/09/27 03:34:51;;;;;;;8.55;7.07;;;;;;;11.78;100.00;101878.41;5039549;28;20033;-72
2023/09/27 03:37:17;;;;;;;8.75;6.80;;;;;;;11.78;100.00;101890.19;5037395;28;20520;-72
2023/09/27 03:39:43;;;;;;;9.15;7.32;;;;;;;11.77;100.00;101885.72;5026706;28;20029;-72
2023/09/27 03:42:09;;;;;;;7.78;6.78;;;;;;;11.76;100.00;101892.16;5025677;28;20045;-72
2023/09/27 03:44:35;;;;;;;12.93;7.57;;;;;;;11.70;100.00;101882.50;5034912;28;20028;-72
2023/09/27 03:47:01;;;;;;;9.00;6.80;;;;;;;11.68;100.00;101878.97;5046077;28;20481;-72
2023/09/27 03:49:27;;;;;;;11.63;7.65;;;;;;;11.67;100.00;101879.97;5045889;28;20045;-72
2023/09/27 03:51:52;;;;;;;11.00;7.68;;;;;;;11.65;100.00;101862.78;5043304;28;20083;-72
2023/09/27 03:54:18;;;;;;;10.35;7.68;;;;;;;11.64;100.00;101862.91;5026588;28;20025;-72
2023/09/27 03:56:47;;;;;;;11.25;7.70;;;;;;;11.61;100.00;101863.06;5025472;28;20029;-72
2023/09/27 03:59:13;;;;;;;11.80;7.43;;;;;;;11.55;100.00;101863.47;5025584;28;20029;-72
2023/09/27 04:01:39;;;;;;;7.88;6.85;;;;;;;11.53;100.00;101870.88;5033898;28;20032;-72
2023/09/27 04:04:05;;;;;;;11.55;6.78;;;;;;;11.52;100.00;101880.88;5046990;28;20041;-72
2023/09/27 04:06:31;;;;;;;10.88;6.55;;;;;;;11.48;100.00;101888.34;5030236;28;20094;-72
2023/09/27 04:08:56;;;;;;;8.20;6.63;;;;;;;11.47;100.00;101894.78;5025126;28;20037;-72
2023/09/27 04:11:22;;;;;;;8.77;6.75;;;;;;;11.45;100.00;101899.44;5025567;28;20547;-72
2023/09/27 04:13:48;;;;;;;10.85;7.30;;;;;;;11.42;100.00;101904.19;5029577;28;20049;-72
2023/09/27 04:16:14;;;;;;;12.65;7.88;;;;;;;11.40;100.00;101901.56;5049403;28;20087;-72
2023/09/27 04:18:39;;;;;;;12.13;7.88;;;;;;;11.38;100.00;101897.19;5049478;28;20044;-72
2023/09/27 04:21:08;;;;;;;14.60;7.68;;;;;;;11.30;100.00;101891.31;5050577;28;20691;-72
2023/09/27 04:23:34;;;;;;;10.25;6.97;;;;;;;11.23;100.00;101897.09;5032879;28;20044;-72
2023/09/27 04:26:00;;;;;;;9.35;6.47;;;;;;;11.19;100.00;101900.06;5031176;28;20041;-72
2023/09/27 04:28:26;;;;;;;7.80;6.35;;;;;;;11.21;100.00;101917.22;5028722;28;20075;-72
2023/09/27 04:30:51;;;;;;;7.00;6.10;;;;;;;11.21;100.00;101909.94;5029171;28;20069;-72
2023/09/27 04:33:18;;;;;;;7.95;6.28;;;;;;;11.20;100.00;101919.06;5031147;28;20104;-72
2023/09/27 04:35:43;;;;;;;9.95;6.93;;;;;;;11.20;100.00;101912.75;5048636;28;20366;-72
2023/09/27 04:38:10;;;;;;;8.45;6.55;;;;;;;11.21;100.00;101922.66;5037333;28;20040;-72
2023/09/27 04:40:36;;;;;;;8.38;6.70;;;;;;;11.17;100.00;101932.84;5030022;28;20037;-72
2023/09/27 04:43:01;;;;;;;11.85;6.50;;;;;;;11.17;100.00;101926.53;5045806;28;20455;-72
2023/09/27 04:45:26;;;;;;;7.38;5.78;;;;;;;11.17;100.00;101924.69;5032026;28;20037;-72
2023/09/27 04:47:52;;;;;;;14.15;7.18;;;;;;;11.10;100.00;101901.50;5037323;28;20045;-72
2023/09/27 04:50:17;;;;;;;11.20;7.72;;;;;;;11.09;100.00;101882.53;5038953;28;20026;-72
2023/09/27 04:52:43;;;;;;;17.60;8.00;;;;;;;11.03;100.00;101880.16;5028519;28;20033;-72
2023/09/27 04:55:09;;;;;;;12.20;8.68;;;;;;;11.04;100.00;101899.13;5028347;28;20060;-72
2023/09/27 04:57:35;;;;;;;11.25;7.95;;;;;;;11.03;100.00;101905.53;5036061;28;20060;-72
2023/09/27 05:00:00;;;;;;;10.23;7.53;;;;;;;11.02;100.00;101900.19;5029701;28;20120;-72
2023/09/27 05:02:27;;;;;;;10.68;7.25;;;;;;;11.03;100.00;101899.22;5042796;28;20114;-72
2023/09/27 05:04:52;;;;;;;13.80;8.02;;;;;;;11.05;100.00;101902.72;5041505;28;20037;-72
2023/09/27 05:07:19;;;;;;;8.20;6.90;;;;;;;11.02;100.00;101903.78;5027525;28;20404;-72
2023/09/27 05:09:45;;;;;;;10.07;7.40;;;;;;;11.03;100.00;101900.09;5028267;28;20126;-72
2023/09/27 05:12:12;;;;;;;9.25;7.40;;;;;;;11.04;100.00;101906.41;5042632;28;20041;-72
2023/09/27 05:14:38;;;;;;;9.52;7.18;;;;;;;11.06;100.00;101909.94;5042675;28;20049;-72
2023/09/27 05:17:04;;;;;;;12.75;7.72;;;;;;;11.03;100.00;101893.78;5028307;28;20468;-72
2023/09/27 05:19:29;;;;;;;9.63;7.30;;;;;;;11.01;100.00;101887.56;5029774;28;20034;-72
2023/09/27 05:21:55;;;;;;;9.00;7.32;;;;;;;10.99;100.00;101888.50;5027880;28;20056;-72
2023/09/27 05:24:20;;;;;;;10.98;7.97;;;;;;;10.99;100.00;101884.91;5029031;28;20164;-72
2023/09/27 05:26:45;;;;;;;13.52;8.70;;;;;;;11.02;100.00;101883.84;5028308;28;20060;-72
2023/09/27 05:29:14;;;;;;;9.70;7.72;;;;;;;10.99;100.00;101887.63;5029318;28;20060;-72
2023/09/27 05:31:40;;;;;;;10.38;7.68;;;;;;;10.95;100.00;101886.91;5029340;28;20044;-72
2023/09/27 05:34:06;;;;;;;7.95;6.95;;;;;;;10.99;100.00;101893.06;5029429;28;20473;-72
2023/09/27 05:36:31;;;;;;;10.23;7.00;;;;;;;10.97;100.00;101895.00;5028646;28;20079;-72
2023/09/27 05:38:56;;;;;;;14.57;8.07;;;;;;;10.96;100.00;101894.13;5027449;28;20025;-72
2023/09/27 05:41:22;;;;;;;11.80;7.63;;;;;;;10.96;100.00;101888.69;5029053;28;20033;-72
2023/09/27 05:43:48;;;;;;;10.77;7.47;;;;;;;10.98;100.00;101886.75;5029275;28;20124;-72
2023/09/27 05:46:13;;;;;;;10.70;7.32;;;;;;;10.98;100.00;101884.03;5029059;28;20032;-72
2023/09/27 05:48:39;;;;;;;9.30;7.63;;;;;;;10.99;100.00;101884.91;5027664;28;20212;-72
2023/09/27 05:51:05;;;;;;;9.93;7.50;;;;;;;10.97;100.00;101875.94;5027791;28;20044;-72
2023/09/27 05:53:30;;;;;;;10.15;7.05;;;;;;;10.98;100.00;101873.13;5029053;28;20037;-72
2023/09/27 05:55:56;;;;;;;9.20;7.15;;;;;;;10.97;100.00;101874.09;5028841;28;20048;-72
2023/09/27 05:58:21;;;;;;;10.70;6.95;;;;;;;10.98;100.00;101872.25;5010736;28;20084;-72
2023/09/27 06:00:47;;;;;;;9.65;7.03;;;;;;;11.01;100.00;101873.94;5047301;28;20039;-72
2023/09/27 06:03:13;;;;;;;13.60;7.78;;;;;;;10.97;100.00;101854.16;5048740;28;20737;-72
2023/09/27 06:05:39;;;;;;;10.77;7.15;;;;;;;11.03;100.00;101881.03;5047567;28;20037;-72
2023/09/27 06:08:05;;;;;;;8.98;6.65;;;;;;;11.03;100.00;101872.88;5032234;28;20025;-72
2023/09/27 06:10:30;;;;;;;11.05;7.78;;;;;;;11.06;100.00;101869.09;5028870;28;20091;-72
2023/09/27 06:12:56;;;;;;;13.32;8.00;;;;;;;11.05;100.00;101867.31;5027679;28;20625;-72
2023/09/27 06:15:21;;;;;;;10.35;7.25;;;;;;;11.06;100.00;101869.97;5027831;28;20468;-72
2023/09/27 06:17:48;;;;;;;11.15;7.53;;;;;;;11.10;100.00;101876.13;5027276;28;20029;-72
2023/09/27 06:20:20;;;;;;;12.40;7.80;;;;;;;11.15;100.00;101871.28;5028709;28;20500;-72
2023/09/27 06:22:48;;;;;;;10.90;8.43;;;;;;;11.23;100.00;101861.66;5036064;28;20048;-72
2023/09/27 06:25:15;;;;;;;11.90;8.63;;;;;;;11.30;100.00;101861.34;5048058;28;20028;-72
2023/09/27 06:27:40;;;;;;;13.20;9.32;;;;;;;11.40;100.00;101855.22;5046854;28;20040;-72
2023/09/27 06:30:07;;;;;;;10.65;7.88;;;;;;;11.50;100.00;101856.44;5016023;28;20037;-72
2023/09/27 06:32:35;;;;;;;11.15;8.25;;;;;;;11.63;100.00;101848.41;5029209;28;20123;-73
2023/09/27 06:35:00;;;;;;;11.60;7.85;;;;;;;11.73;100.00;101849.59;5011162;28;20021;-73
2023/09/27 06:37:25;;;;;;;12.32;8.55;;;;;;;11.83;100.00;101854.50;5010716;28;20041;-72
2023/09/27 06:39:51;;;;;;;11.80;8.10;;;;;;;11.93;100.00;101850.22;5026384;28;20401;-73
2023/09/27 06:42:16;;;;;;;16.58;9.23;;;;;;;12.05;100.00;101863.13;5026701;28;20401;-72
2023/09/27 06:44:41;;;;;;;12.50;8.85;;;;;;;12.16;100.00;101852.41;5026393;28;20463;-73
2023/09/27 06:47:07;;;;;;;8.88;7.45;;;;;;;12.33;100.00;101855.94;5027800;28;20048;-72
2023/09/27 06:49:32;;;;;;;12.02;7.88;;;;;;;12.57;100.00;101859.81;5028631;28;20037;-73
2023/09/27 06:51:57;;;;;;;12.55;7.82;;;;;;;12.72;100.00;101877.03;5028453;28;20032;-73
2023/09/27 06:54:23;;;;;;;10.18;8.02;;;;;;;12.81;100.00;101881.03;5027450;28;20053;-72
2023/09/27 06:56:48;;;;;;;10.10;7.72;;;;;;;12.86;100.00;101893.41;5026157;28;20017;-73
2023/09/27 06:59:13;;;;;;;12.48;8.68;;;;;;;12.90;100.00;101877.69;5027885;28;20056;-72
2023/09/27 07:01:41;;;;;;;10.63;8.40;;;;;;;12.94;100.00;101873.78;5018052;28;20021;-72
2023/09/27 07:04:07;;;;;;;13.35;9.30;;;;;;;13.03;100.00;101870.44;5047653;28;20838;-72
2023/09/27 07:06:34;;;;;;;14.15;10.73;;;;;;;13.10;100.00;101865.44;5041674;28;20031;-72
2023/09/27 07:09:02;;;;;;;14.45;10.70;;;;;;;13.17;100.00;101862.22;5026383;28;20049;-72
2023/09/27 07:11:28;;;;;;;13.77;11.02;;;;;;;13.20;100.00;101852.94;5025955;28;20033;-73
2023/09/27 07:13:53;;;;;;;16.30;10.43;;;;;;;13.20;100.00;101864.75;5027245;28;20036;-72
2023/09/27 07:16:29;;;;;;;14.18;9.65;;;;;;;13.24;100.00;101874.53;5026056;28;20029;-72
2023/09/27 07:19:03;;;;;;;12.70;10.18;;;;;;;13.25;100.00;101873.53;5027772;28;20044;-73
2023/09/27 07:21:30;;;;;;;19.08;11.35;;;;;;;13.26;100.00;101878.03;5028232;28;20068;-73
2023/09/27 07:23:55;;;;;;;21.23;9.40;;;;;;;13.24;100.00;101879.09;5025454;28;20056;-73
2023/09/27 07:26:20;;;;;;;12.88;9.50;;;;;;;13.29;100.00;101885.16;5026914;28;20045;-73
2023/09/27 07:28:46;;;;;;;12.40;9.98;;;;;;;13.29;100.00;101879.69;5027027;28;20044;-72
2023/09/27 07:31:14;;;;;;;12.45;10.73;;;;;;;13.32;100.00;101874.00;5027236;28;20049;-72
2023/09/27 07:33:39;;;;;;;15.93;10.27;;;;;;;13.33;100.00;101878.47;5026010;28;20036;-72
2023/09/27 07:36:08;;;;;;;13.18;10.52;;;;;;;13.38;100.00;101892.72;5027498;28;20033;-72
2023/09/27 07:38:34;;;;;;;13.63;10.27;;;;;;;13.43;100.00;101892.38;5039288;28;20045;-73
2023/09/27 07:40:59;;;;;;;13.30;10.38;;;;;;;13.49;100.00;101887.41;5027717;28;20038;-73
2023/09/27 07:43:24;;;;;;;15.50;11.40;;;;;;;13.50;100.00;101880.06;5027071;28;20053;-72
2023/09/27 07:45:49;;;;;;;12.88;10.02;;;;;;;13.53;100.00;101875.28;5009023;28;20116;-72
2023/09/27 07:48:15;;;;;;;19.52;11.82;;;;;;;13.62;100.00;101873.78;5027403;28;20130;-72
2023/09/27 07:50:40;;;;;;;17.58;11.65;;;;;;;13.72;100.00;101872.16;5030196;28;20037;-72
2023/09/27 07:53:08;;;;;;;16.17;11.65;;;;;;;13.80;100.00;101871.59;5029576;28;20045;-72
2023/09/27 07:55:43;;;;;;;16.58;12.02;;;;;;;13.93;100.00;101882.56;5041143;28;20037;-73
2023/09/27 07:58:09;;;;;;;18.65;11.98;;;;;;;14.06;100.00;101880.72;5049566;28;20072;-72
2023/09/27 08:00:35;;;;;;;15.15;12.68;;;;;;;14.17;100.00;101888.16;5032865;28;20477;-72
2023/09/27 08:03:02;;;;;;;16.52;11.88;;;;;;;14.26;100.00;101873.81;5030117;28;20047;-72
2023/09/27 08:05:28;;;;;;;16.30;13.00;;;;;;;14.40;100.00;101892.88;5030730;28;20065;-72
2023/09/27 08:07:54;;;;;;;17.40;12.75;;;;;;;14.54;100.00;101894.66;5039212;28;20064;-72
2023/09/27 08:10:20;;;;;;;22.25;14.93;;;;;;;14.65;100.00;101891.16;5050451;28;20527;-72
2023/09/27 08:12:47;;;;;;;20.92;13.50;;;;;;;14.74;100.00;101899.56;5050825;28;20021;-73
2023/09/27 08:15:13;;;;;;;17.08;14.63;;;;;;;14.91;100.00;101898.31;5035615;28;20048;-73
2023/09/27 08:17:38;;;;;;;20.98;13.65;;;;;;;15.01;100.00;101891.19;5029445;28;20045;-72
2023/09/27 08:20:11;;;;;;;15.00;13.32;;;;;;;15.11;100.00;101895.94;5030678;28;20033;-72
2023/09/27 08:22:38;;;;;;;;;;;;;;;15.19;100.00;101899.88;5037390;28;20036;-72
2023/09/27 08:25:04;;;;;;;17.40;13.50;;;;;;;15.32;100.00;101908.06;5048940;28;19913;-72
2023/09/27 08:27:30;;;;;;;24.13;13.90;;;;;;;15.46;100.00;101915.25;5049538;28;20131;-72
2023/09/27 08:29:56;;;;;;;21.85;14.10;;;;;;;15.61;100.00;101916.81;5036139;28;20430;-72
2023/09/27 08:32:21;;;;;;;18.70;13.75;;;;;;;15.70;100.00;101907.91;5029495;28;20042;-72
2023/09/27 08:34:46;;;;;;;17.90;12.90;;;;;;;15.78;100.00;101907.31;5030340;28;20501;-72
2023/09/27 08:37:12;;;;;;;18.42;13.38;;;;;;;15.92;100.00;101903.50;5030165;28;20029;-72
2023/09/27 08:39:38;;;;;;;15.60;13.82;;;;;;;16.22;100.00;101913.94;5029759;28;20120;-72
2023/09/27 08:42:04;;;;;;;21.90;14.25;;;;;;;16.46;100.00;101922.09;5030089;28;20483;-72
2023/09/27 08:44:31;;;;;;;18.58;13.20;;;;;;;16.63;100.00;101916.13;5037646;28;20120;-72
2023/09/27 08:46:57;;;;;;;17.92;13.40;;;;;;;16.77;100.00;101906.78;5049958;28;20492;-72
2023/09/27 08:49:24;;;;;;;17.38;12.60;;;;;;;16.89;100.00;101896.66;5043720;28;20033;-72
2023/09/27 08:51:50;;;;;;;22.77;13.57;;;;;;;17.07;100.00;101893.28;5028865;28;20512;-72
2023/09/27 08:54:17;;;;;;;17.58;12.13;;;;;;;17.12;100.00;101892.88;5028126;28;20041;-72
2023/09/27 08:56:50;;;;;;;17.98;13.25;;;;;;;17.26;100.00;101894.47;5028319;28;20100;-72
2023/09/27 08:59:18;;;;;;;19.48;12.35;;;;;;;17.37;100.00;101888.94;5029477;28;20073;-72
2023/09/27 09:01:44;;;;;;;19.15;13.13;;;;;;;17.46;100.00;101898.28;5036048;28;20431;-72
2023/09/27 09:04:11;;;;;;;15.63;13.05;;;;;;;17.59;100.00;101899.00;5049659;28;20052;-72
2023/09/27 09:06:36;;;;;;;19.08;12.05;;;;;;;17.72;100.00;101894.19;5047967;28;20752;-72
2023/09/27 09:09:11;;;;;;;21.27;13.02;;;;;;;17.87;100.00;101882.91;5029518;28;20112;-72
2023/09/27 09:11:47;;;;;;;14.93;11.63;;;;;;;18.09;100.00;101889.16;5029742;28;20045;-72
2023/09/27 09:14:17;;;;;;;14.80;10.15;;;;;;;18.25;96.77;101887.78;5030057;28;20037;-72
2023/09/27 09:16:50;;;;;;;16.80;10.73;;;;;;;18.41;95.71;101892.81;5029374;28;20112;-73
2023/09/27 09:19:23;;;;;;;12.45;10.55;;;;;;;18.63;98.70;101884.38;5029640;28;20033;-72
2023/09/27 09:21:56;;;;;;;18.00;12.45;;;;;;;18.85;99.05;101895.25;5029626;28;20485;-72
2023/09/27 09:24:22;;;;;;;15.82;12.32;;;;;;;18.98;93.25;101881.22;5028767;28;20116;-72
2023/09/27 09:26:47;;;;;;;19.90;13.80;;;;;;;19.05;93.87;101879.63;5028057;28;20112;-72
2023/09/27 09:29:12;;;;;;;19.40;15.40;;;;;;;19.16;93.41;101883.28;5016476;28;20037;-72
2023/09/27 09:31:38;;;;;;;19.23;16.33;;;;;;;19.20;91.33;101870.94;5049139;28;20456;-72
2023/09/27 09:34:10;;;;;;;20.90;17.23;;;;;;;19.28;91.21;101868.34;5028477;28;20034;-73
2023/09/27 09:36:36;;;;;;;22.02;18.08;;;;;;;19.30;88.50;101871.81;5030385;28;20500;-72
2023/09/27 09:39:17;;;;;;;21.13;17.88;;;;;;;19.30;90.41;101872.69;5028772;28;20045;-72
2023/09/27 09:41:53;;;;;;;19.85;16.30;;;;;;;19.35;89.18;101864.88;5029120;28;20480;-72
2023/09/27 09:44:20;;;;;;;16.75;14.95;;;;;;;19.43;88.59;101866.03;5027467;28;20029;-72
2023/09/27 09:46:47;;;;;;;24.40;17.00;;;;;;;19.60;92.11;101857.09;5028844;28;20485;-72
2023/09/27 09:49:16;;;;;;;21.02;15.63;;;;;;;19.79;90.86;101856.19;5033471;28;20112;-72
2023/09/27 09:51:46;;;;;;;22.67;14.65;;;;;;;19.91;85.59;101845.84;5048166;28;20185;-72
2023/09/27 09:54:17;;;;;;;19.10;15.30;;;;;;;19.97;86.38;101840.63;5028526;28;20523;-72
2023/09/27 09:56:44;;;;;;;16.80;14.73;;;;;;;20.10;85.12;101834.78;5027630;28;20045;-72
2023/09/27 09:59:13;;;;;;;19.42;15.18;;;;;;;20.37;85.86;101825.66;5028368;28;20044;-72
2023/09/27 10:01:40;;;;;;;17.77;14.50;;;;;;;20.60;84.58;101826.19;5028580;28;20121;-72
2023/09/27 10:04:07;;;;;;;18.15;15.02;;;;;;;20.78;83.73;101826.25;5010771;28;20501;-73
2023/09/27 10:06:33;;;;;;;15.98;13.85;;;;;;;21.04;85.14;101829.16;5028009;28;20095;-72
2023/09/27 10:09:01;;;;;;;18.52;13.85;;;;;;;21.16;80.42;101819.59;5028041;28;20037;-71
2023/09/27 10:11:27;;;;;;;16.15;13.65;;;;;;;21.19;79.87;101822.06;5028452;28;20511;-72
2023/09/27 10:13:56;;;;;;;16.77;14.07;;;;;;;21.32;81.05;101828.13;5027776;28;20044;-72
2023/09/27 10:16:23;;;;;;;15.13;13.10;;;;;;;21.41;79.84;101833.75;5028289;28;20029;-72
2023/09/27 10:18:49;;;;;;;15.00;12.95;;;;;;;21.51;79.44;101832.63;5027170;28;20473;-71
2023/09/27 10:21:15;;;;;;;15.98;12.98;;;;;;;21.63;76.21;101838.78;5028580;28;20045;-72
2023/09/27 10:23:46;;;;;;;14.27;12.15;;;;;;;21.71;75.03;101838.88;5027736;28;20021;-72
2023/09/27 10:26:27;;;;;;;16.15;11.43;;;;;;;21.84;76.40;101827.38;5027343;28;20041;-72
2023/09/27 10:29:04;;;;;;;16.75;11.82;;;;;;;21.98;75.99;101817.63;5035705;28;20037;-72
2023/09/27 10:31:56;;;;;;;16.80;11.57;;;;;;;22.16;76.35;101807.38;5028691;28;20045;-72
2023/09/27 10:34:25;;;;;;;16.35;11.18;;;;;;;22.16;71.81;101801.84;5026675;28;20037;-72
2023/09/27 10:36:51;;;;;;;13.45;10.73;;;;;;;22.12;72.83;101806.84;5027067;28;20064;-72
2023/09/27 10:39:17;;;;;;;14.68;11.82;;;;;;;22.21;75.35;101810.53;5026163;28;20126;-72
2023/09/27 10:41:46;;;;;;;15.48;11.27;;;;;;;22.30;74.42;101805.91;5027846;28;20049;-72
2023/09/27 10:44:12;;;;;;;15.57;11.50;;;;;;;22.37;69.56;101795.88;5026484;28;20037;-72
2023/09/27 10:46:40;;;;;;;16.55;11.73;;;;;;;22.42;73.29;101794.34;5027770;28;20117;-72
2023/09/27 10:49:06;;;;;;;12.57;10.27;;;;;;;22.45;70.29;101790.38;5028109;28;20167;-72
2023/09/27 10:51:31;;;;;;;11.57;9.48;;;;;;;22.51;72.02;101780.53;5027051;28;20487;-72
2023/09/27 10:53:57;;;;;;;11.80;9.50;;;;;;;22.63;72.63;101776.44;5009556;28;20519;-72
2023/09/27 10:56:22;;;;;;;15.00;9.40;;;;;;;22.86;70.76;101768.38;5010107;28;20021;-71
2023/09/27 10:58:49;;;;;;;11.48;9.98;;;;;;;22.97;69.97;101769.97;5027368;28;20094;-71
2023/09/27 11:01:23;;;;;;;14.70;9.02;;;;;;;23.01;71.71;101766.69;5045787;28;20506;-72
2023/09/27 11:03:58;;;;;;;13.27;9.82;;;;;;;22.97;70.41;101779.16;5046753;28;20049;-72
2023/09/27 11:06:23;;;;;;;11.32;8.82;;;;;;;22.89;68.26;101770.81;5027604;28;20067;-71